Carrickfergus, United Kingdom
Current Conditions -  °F | °C
As of 8:20 AM on Friday 19 Dec 2014 (Local Time) from EGAC Reporting Station
Few Clouds Few Clouds  
Wind Chill: 33°   Ceiling: Unl
Heat Index: 41°   Visibility: 6mi
Dew Point: 36°   Wind: 16mph
Humidity: 81%   Direction: 260°W
Pressure: 29.74"   Gusts: NA
Location:  54.72°N, 5.79°W
Report Text: EGAC 190820Z 26014KT 9999 FEW020 05/02 Q1007
Loading
Personal Weather Stations






























Interactive Weather Map New forecast layout! Learn more

10-Day Weather Forecast

Advertisements
Track Severe Weather on mobile